CST,Max TemperatureF,Mean TemperatureF,Min TemperatureF,Max Dew PointF,MeanDew PointF,Min DewpointF,Max Humidity, Mean Humidity, Min Humidity, Max Sea Level PressureIn, Mean Sea Level PressureIn, Min Sea Level PressureIn, Max VisibilityMiles, Mean VisibilityMiles, Min VisibilityMiles, Max Wind SpeedMPH, Mean Wind SpeedMPH, Max Gust SpeedMPH,PrecipitationIn, CloudCover, Events, WindDirDegrees
2011-11-1,52,41,30,36,28,23,85,60,35,30.30,30.07,29.88,10,10,10,25,14,32,0.00,0,,276
2011-11-2,49,38,26,25,21,19,81,56,31,30.40,30.30,30.17,10,10,10,20,12,26,0.00,0,,233
2011-11-3,57,45,32,22,19,16,61,41,20,30.14,29.99,29.83,10,10,10,23,13,29,0.00,0,,177
2011-11-4,52,39,25,28,25,20,85,62,38,29.79,29.70,29.65,10,10,10,17,8,24,0.00,0,,169
2011-11-5,47,36,25,33,29,22,92,75,58,29.64,29.50,29.35,10,10,9,17,7,21,0.00,1,,352
2011-11-6,37,34,31,34,28,25,92,82,72,29.79,29.47,29.29,10,6,1,30,20,37,T,8,Snow,262
2011-11-7,41,32,23,28,24,20,85,66,46,30.17,30.03,29.78,10,9,4,28,11,35,T,2,Snow,253
2011-11-8,47,35,23,25,23,19,81,59,37,30.17,30.10,30.04,10,10,10,18,11,23,0.00,0,,226
2011-11-9,42,35,27,24,21,19,78,60,41,30.33,30.28,30.19,10,10,10,30,19,38,0.00,0,,275
2011-11-10,43,32,20,25,21,18,88,67,45,30.29,29.99,29.60,10,10,10,18,9,24,0.00,3,,209
2011-11-11,52,44,35,30,26,21,70,56,41,29.61,29.52,29.34,10,10,10,15,9,18,0.00,0,,218
2011-11-12,51,39,26,30,25,21,82,59,35,29.35,29.27,29.20,10,10,10,25,11,32,0.00,2,,248
2011-11-13,48,39,29,30,26,24,92,66,39,29.31,29.24,29.18,10,10,9,20,9,26,0.00,6,,242
2011-11-14,45,35,24,32,26,19,89,64,39,29.51,29.39,29.30,10,9,2,26,12,33,T,2,Snow,246
2011-11-15,32,25,17,30,22,10,92,79,65,29.96,29.63,29.35,10,5,0,33,17,41,0.19,5,Fog-Snow,276
2011-11-16,20,13,6,14,9,2,88,75,62,30.26,30.12,29.94,10,9,2,26,15,31,T,3,Snow,270
2011-11-17,29,15,1,25,14,-1,95,79,63,30.22,29.84,29.58,10,8,1,20,8,25,T,5,Snow,116
2011-11-18,24,14,4,18,11,0,84,78,71,30.06,29.79,29.59,10,10,7,25,11,30,T,5,Snow,305
2011-11-19,7,3,-2,1,-1,-7,87,82,76,30.35,30.20,29.99,10,8,2,15,7,18,T,6,Snow,342
2011-11-20,24,14,3,16,7,0,88,80,71,30.31,30.15,29.97,10,9,2,21,10,28,T,5,Snow,149
2011-11-21,31,17,3,23,13,1,91,80,68,30.19,30.09,29.97,10,10,9,18,5,24,0.00,1,,145
2011-11-22,45,37,29,31,27,22,82,70,57,29.96,29.88,29.78,10,10,10,20,12,28,0.00,0,,201
2011-11-23,55,48,40,34,31,28,65,54,43,29.86,29.75,29.62,10,10,10,20,12,25,0.00,0,,205
2011-11-24,57,45,33,33,30,28,89,63,36,29.77,29.66,29.57,10,9,3,20,11,24,0.00,1,,258
2011-11-25,35,33,31,32,30,28,100,91,82,29.91,29.76,29.67,10,5,0,15,5,17,0.00,8,Fog,77
2011-11-26,36,28,19,30,19,12,89,65,41,30.45,30.26,29.97,10,10,10,35,20,44,0.00,3,,285
2011-11-27,45,31,16,24,18,12,88,62,36,30.39,30.09,29.75,10,10,10,22,10,29,0.00,0,,176
2011-11-28,51,37,23,31,24,17,76,56,36,30.43,30.12,29.75,10,10,10,30,16,39,0.00,0,,269
2011-11-29,45,32,19,28,22,15,85,67,49,30.39,30.15,29.94,10,10,10,23,9,35,0.00,0,,210
2011-11-30,34,29,23,29,26,19,92,82,72,30.50,30.07,29.93,10,5,0,20,9,24,0.04,8,Fog-Snow,358